sensor_id;sensor_type;location;lat;lon;timestamp;pressure;altitude;pressure_sealevel;temperature;humidity
57102;BME280;42982;54.558;18.508;2022-08-25T00:00:48;101509.28;;;20.90;99.15
57102;BME280;42982;54.558;18.508;2022-08-25T00:01:54;101508.13;;;20.91;99.03
57102;BME280;42982;54.558;18.508;2022-08-25T00:02:59;101512.47;;;20.92;98.91
57102;BME280;42982;54.558;18.508;2022-08-25T00:04:02;101504.75;;;20.94;98.83
57102;BME280;42982;54.558;18.508;2022-08-25T00:05:05;101504.28;;;20.92;98.89
57102;BME280;42982;54.558;18.508;2022-08-25T00:06:10;101502.97;;;20.90;98.88
57102;BME280;42982;54.558;18.508;2022-08-25T00:07:13;101503.81;;;20.90;98.81
57102;BME280;42982;54.558;18.508;2022-08-25T00:08:19;101498.34;;;20.90;98.79
57102;BME280;42982;54.558;18.508;2022-08-25T00:09:23;101502.97;;;20.90;98.84
57102;BME280;42982;54.558;18.508;2022-08-25T00:10:26;101498.34;;;20.90;98.60
57102;BME280;42982;54.558;18.508;2022-08-25T00:11:32;101499.00;;;20.87;98.61
57102;BME280;42982;54.558;18.508;2022-08-25T00:12:38;101505.41;;;20.91;98.57
57102;BME280;42982;54.558;18.508;2022-08-25T00:13:49;101502.53;;;20.88;98.38
57102;BME280;42982;54.558;18.508;2022-08-25T00:14:51;101492.25;;;20.85;98.32
57102;BME280;42982;54.558;18.508;2022-08-25T00:15:53;101501.88;;;20.82;98.27
57102;BME280;42982;54.558;18.508;2022-08-25T00:16:58;101493.19;;;20.80;98.40
57102;BME280;42982;54.558;18.508;2022-08-25T00:18:05;101496.41;;;20.82;98.30
57102;BME280;42982;54.558;18.508;2022-08-25T00:19:22;101492.53;;;20.83;98.31
57102;BME280;42982;54.558;18.508;2022-08-25T00:20:24;101489.00;;;20.82;98.26
57102;BME280;42982;54.558;18.508;2022-08-25T00:21:26;101490.63;;;20.83;98.12
57102;BME280;42982;54.558;18.508;2022-08-25T00:22:28;101487.88;;;20.83;98.05
57102;BME280;42982;54.558;18.508;2022-08-25T00:23:32;101490.78;;;20.87;98.17
57102;BME280;42982;54.558;18.508;2022-08-25T00:24:34;101487.56;;;20.85;98.18
57102;BME280;42982;54.558;18.508;2022-08-25T00:25:37;101486.78;;;20.85;98.23
57102;BME280;42982;54.558;18.508;2022-08-25T00:26:40;101485.97;;;20.84;98.02
57102;BME280;42982;54.558;18.508;2022-08-25T00:27:45;101487.88;;;20.83;98.20
57102;BME280;42982;54.558;18.508;2022-08-25T00:28:51;101489.81;;;20.83;98.18
57102;BME280;42982;54.558;18.508;2022-08-25T00:29:56;101487.88;;;20.83;98.21
57102;BME280;42982;54.558;18.508;2022-08-25T00:31:03;101484.69;;;20.81;98.19
57102;BME280;42982;54.558;18.508;2022-08-25T00:32:05;101485.50;;;20.82;98.20
57102;BME280;42982;54.558;18.508;2022-08-25T00:33:10;101479.69;;;20.83;98.06
57102;BME280;42982;54.558;18.508;2022-08-25T00:34:19;101487.09;;;20.83;98.00
57102;BME280;42982;54.558;18.508;2022-08-25T00:35:22;101481.97;;;20.81;97.96
57102;BME280;42982;54.558;18.508;2022-08-25T00:36:25;101483.88;;;20.81;97.97
57102;BME280;42982;54.558;18.508;2022-08-25T00:37:28;101484.19;;;20.79;97.99
57102;BME280;42982;54.558;18.508;2022-08-25T00:38:33;101485.50;;;20.82;97.83
57102;BME280;42982;54.558;18.508;2022-08-25T00:39:36;101490.94;;;20.82;97.74
57102;BME280;42982;54.558;18.508;2022-08-25T00:40:42;101483.88;;;20.81;97.70
57102;BME280;42982;54.558;18.508;2022-08-25T00:41:44;101483.88;;;20.81;97.62
57102;BME280;42982;54.558;18.508;2022-08-25T00:42:50;101486.28;;;20.82;97.46
57102;BME280;42982;54.558;18.508;2022-08-25T00:44:56;101486.13;;;20.79;97.35
57102;BME280;42982;54.558;18.508;2022-08-25T00:46:00;101481.81;;;20.78;97.40
57102;BME280;42982;54.558;18.508;2022-08-25T00:47:06;101484.53;;;20.78;97.38
57102;BME280;42982;54.558;18.508;2022-08-25T00:48:10;101472.47;;;20.79;97.15
57102;BME280;42982;54.558;18.508;2022-08-25T00:49:19;101479.06;;;20.78;97.19
57102;BME280;42982;54.558;18.508;2022-08-25T00:50:22;101487.72;;;20.80;97.20
57102;BME280;42982;54.558;18.508;2022-08-25T00:51:38;101486.13;;;20.79;97.04
57102;BME280;42982;54.558;18.508;2022-08-25T00:52:49;101481.31;;;20.76;97.05
57102;BME280;42982;54.558;18.508;2022-08-25T00:53:51;101480.53;;;20.75;97.07
57102;BME280;42982;54.558;18.508;2022-08-25T00:54:56;101478.44;;;20.72;97.04
57102;BME280;42982;54.558;18.508;2022-08-25T00:56:02;101487.13;;;20.74;97.03
57102;BME280;42982;54.558;18.508;2022-08-25T00:57:08;101486.16;;;20.70;96.96
57102;BME280;42982;54.558;18.508;2022-08-25T00:58:22;101486.63;;;20.72;96.82
57102;BME280;42982;54.558;18.508;2022-08-25T00:59:26;101482.75;;;20.73;96.99
57102;BME280;42982;54.558;18.508;2022-08-25T01:00:37;101477.63;;;20.72;96.86
57102;BME280;42982;54.558;18.508;2022-08-25T01:01:48;101486.47;;;20.69;96.79
57102;BME280;42982;54.558;18.508;2022-08-25T01:02:54;101486.47;;;20.69;96.95
57102;BME280;42982;54.558;18.508;2022-08-25T01:04:00;101484.06;;;20.67;96.84
57102;BME280;42982;54.558;18.508;2022-08-25T01:05:03;101483.59;;;20.65;96.90
57102;BME280;42982;54.558;18.508;2022-08-25T01:06:06;101483.25;;;20.67;96.93
57102;BME280;42982;54.558;18.508;2022-08-25T01:07:11;101490.97;;;20.65;97.21
57102;BME280;42982;54.558;18.508;2022-08-25T01:08:18;101492.59;;;20.66;97.13
57102;BME280;42982;54.558;18.508;2022-08-25T01:09:28;101485.50;;;20.65;97.04
57102;BME280;42982;54.558;18.508;2022-08-25T01:10:34;101491.47;;;20.67;97.06
57102;BME280;42982;54.558;18.508;2022-08-25T01:11:41;101495.31;;;20.66;97.07
57102;BME280;42982;54.558;18.508;2022-08-25T01:12:51;101486.47;;;20.69;97.09
57102;BME280;42982;54.558;18.508;2022-08-25T01:14:02;101495.16;;;20.71;97.02
57102;BME280;42982;54.558;18.508;2022-08-25T01:15:11;101490.50;;;20.71;97.14
57102;BME280;42982;54.558;18.508;2022-08-25T01:16:14;101496.13;;;20.75;97.17
57102;BME280;42982;54.558;18.508;2022-08-25T01:17:15;101485.66;;;20.77;96.96
57102;BME280;42982;54.558;18.508;2022-08-25T01:18:17;101496.13;;;20.75;97.00
57102;BME280;42982;54.558;18.508;2022-08-25T01:19:22;101486.78;;;20.76;96.89
57102;BME280;42982;54.558;18.508;2022-08-25T01:20:28;101486.94;;;20.71;97.02
57102;BME280;42982;54.558;18.508;2022-08-25T01:21:37;101481.81;;;20.69;97.01
57102;BME280;42982;54.558;18.508;2022-08-25T01:22:43;101488.09;;;20.70;96.94
57102;BME280;42982;54.558;18.508;2022-08-25T01:23:46;101488.09;;;20.70;97.02
57102;BME280;42982;54.558;18.508;2022-08-25T01:25:11;101486.63;;;20.72;96.92
57102;BME280;42982;54.558;18.508;2022-08-25T01:26:21;101484.38;;;20.74;96.97
57102;BME280;42982;54.558;18.508;2022-08-25T01:27:25;101483.09;;;20.72;96.98
57102;BME280;42982;54.558;18.508;2022-08-25T01:28:35;101484.84;;;20.68;96.90
57102;BME280;42982;54.558;18.508;2022-08-25T01:29:57;101488.41;;;20.68;96.94
57102;BME280;42982;54.558;18.508;2022-08-25T01:31:02;101488.09;;;20.70;97.06
57102;BME280;42982;54.558;18.508;2022-08-25T01:32:10;101491.94;;;20.69;96.96
57102;BME280;42982;54.558;18.508;2022-08-25T01:33:13;101484.22;;;20.71;97.03
57102;BME280;42982;54.558;18.508;2022-08-25T01:34:25;101482.47;;;20.75;96.96
57102;BME280;42982;54.558;18.508;2022-08-25T01:35:30;101481.31;;;20.76;96.91
57102;BME280;42982;54.558;18.508;2022-08-25T01:36:41;101486.13;;;20.79;96.89
57102;BME280;42982;54.558;18.508;2022-08-25T01:37:43;101490.00;;;20.78;96.96
57102;BME280;42982;54.558;18.508;2022-08-25T01:38:48;101490.81;;;20.78;97.05
57102;BME280;42982;54.558;18.508;2022-08-25T01:39:55;101487.28;;;20.78;97.16
57102;BME280;42982;54.558;18.508;2022-08-25T01:41:00;101488.38;;;20.77;97.27
57102;BME280;42982;54.558;18.508;2022-08-25T01:44:10;101488.72;;;20.75;97.70
57102;BME280;42982;54.558;18.508;2022-08-25T01:45:11;101482.47;;;20.75;97.86
57102;BME280;42982;54.558;18.508;2022-08-25T01:46:13;101489.19;;;20.77;97.97
57102;BME280;42982;54.558;18.508;2022-08-25T01:47:15;101484.06;;;20.76;98.30
57102;BME280;42982;54.558;18.508;2022-08-25T01:48:19;101489.03;;;20.74;98.30
57102;BME280;42982;54.558;18.508;2022-08-25T01:49:24;101481.31;;;20.76;98.40
57102;BME280;42982;54.558;18.508;2022-08-25T01:50:26;101481.31;;;20.76;98.81
57102;BME280;42982;54.558;18.508;2022-08-25T01:52:22;101488.38;;;20.77;98.88
57102;BME280;42982;54.558;18.508;2022-08-25T01:53:06;101484.53;;;20.78;99.09
57102;BME280;42982;54.558;18.508;2022-08-25T01:54:08;101490.00;;;20.78;99.30
57102;BME280;42982;54.558;18.508;2022-08-25T01:55:13;101484.53;;;20.78;99.52
57102;BME280;42982;54.558;18.508;2022-08-25T01:56:15;101493.19;;;20.80;99.57
57102;BME280;42982;54.558;18.508;2022-08-25T01:57:24;101490.47;;;20.80;99.96
57102;BME280;42982;54.558;18.508;2022-08-25T01:58:28;101488.53;;;20.80;99.97
57102;BME280;42982;54.558;18.508;2022-08-25T01:59:31;101487.72;;;20.80;100.00
57102;BME280;42982;54.558;18.508;2022-08-25T02:00:36;101486.94;;;20.79;100.00
57102;BME280;42982;54.558;18.508;2022-08-25T02:01:38;101484.53;;;20.78;100.00
57102;BME280;42982;54.558;18.508;2022-08-25T02:02:41;101479.38;;;20.76;100.00
57102;BME280;42982;54.558;18.508;2022-08-25T02:03:44;101480.19;;;20.77;100.00
57102;BME280;42982;54.558;18.508;2022-08-25T02:04:46;101487.94;;;20.75;100.00
57102;BME280;42982;54.558;18.508;2022-08-25T02:05:49;101485.19;;;20.75;100.00
57102;BME280;42982;54.558;18.508;2022-08-25T02:06:57;101479.72;;;20.75;100.00
57102;BME280;42982;54.558;18.508;2022-08-25T02:08:01;101480.03;;;20.73;100.00
57102;BME280;42982;54.558;18.508;2022-08-25T02:09:08;101477.63;;;20.72;100.00
57102;BME280;42982;54.558;18.508;2022-08-25T02:10:11;101474.91;;;20.72;100.00
57102;BME280;42982;54.558;18.508;2022-08-25T02:11:15;101480.38;;;20.72;100.00
57102;BME280;42982;54.558;18.508;2022-08-25T02:12:20;101473.28;;;20.71;100.00
57102;BME280;42982;54.558;18.508;2022-08-25T02:13:22;101466.22;;;20.70;100.00
57102;BME280;42982;54.558;18.508;2022-08-25T02:14:25;101470.88;;;20.69;100.00
57102;BME280;42982;54.558;18.508;2022-08-25T02:15:29;101472.47;;;20.70;100.00
57102;BME280;42982;54.558;18.508;2022-08-25T02:16:33;101477.16;;;20.70;100.00
57102;BME280;42982;54.558;18.508;2022-08-25T02:17:36;101474.75;;;20.68;100.00
57102;BME280;42982;54.558;18.508;2022-08-25T02:18:38;101477.94;;;20.70;100.00
57102;BME280;42982;54.558;18.508;2022-08-25T02:19:40;101472.47;;;20.70;100.00
57102;BME280;42982;54.558;18.508;2022-08-25T02:20:45;101471.69;;;20.70;100.00
57102;BME280;42982;54.558;18.508;2022-08-25T02:21:47;101477.94;;;20.70;100.00
57102;BME280;42982;54.558;18.508;2022-08-25T02:22:52;101475.56;;;20.69;100.00
57102;BME280;42982;54.558;18.508;2022-08-25T02:23:54;101479.56;;;20.71;100.00
57102;BME280;42982;54.558;18.508;2022-08-25T02:24:57;101466.22;;;20.70;100.00
57102;BME280;42982;54.558;18.508;2022-08-25T02:26:03;101466.22;;;20.70;100.00
57102;BME280;42982;54.558;18.508;2022-08-25T02:27:05;101471.19;;;20.68;100.00
57102;BME280;42982;54.558;18.508;2022-08-25T02:28:13;101470.88;;;20.69;100.00
57102;BME280;42982;54.558;18.508;2022-08-25T02:29:15;101458.50;;;20.72;100.00
57102;BME280;42982;54.558;18.508;2022-08-25T02:30:17;101465.09;;;20.71;100.00
57102;BME280;42982;54.558;18.508;2022-08-25T02:31:21;101472.63;;;20.74;100.00
57102;BME280;42982;54.558;18.508;2022-08-25T02:32:33;101472.63;;;20.74;100.00
57102;BME280;42982;54.558;18.508;2022-08-25T02:33:40;101466.84;;;20.75;100.00
57102;BME280;42982;54.558;18.508;2022-08-25T02:34:47;101463.31;;;20.75;100.00
57102;BME280;42982;54.558;18.508;2022-08-25T02:35:56;101467.31;;;20.77;100.00
57102;BME280;42982;54.558;18.508;2022-08-25T02:37:00;101473.91;;;20.76;100.00
57102;BME280;42982;54.558;18.508;2022-08-25T02:38:05;101461.38;;;20.75;100.00
57102;BME280;42982;54.558;18.508;2022-08-25T02:39:09;101459.31;;;20.72;100.00
57102;BME280;42982;54.558;18.508;2022-08-25T02:40:14;101466.22;;;20.70;100.00
57102;BME280;42982;54.558;18.508;2022-08-25T02:41:21;101472.47;;;20.70;100.00
57102;BME280;42982;54.558;18.508;2022-08-25T02:42:25;101476.34;;;20.69;100.00
57102;BME280;42982;54.558;18.508;2022-08-25T02:43:34;101464.63;;;20.69;100.00
57102;BME280;42982;54.558;18.508;2022-08-25T02:44:36;101467.34;;;20.69;100.00
57102;BME280;42982;54.558;18.508;2022-08-25T02:45:41;101452.06;;;20.68;100.00
57102;BME280;42982;54.558;18.508;2022-08-25T02:46:49;101461.41;;;20.67;100.00
57102;BME280;42982;54.558;18.508;2022-08-25T02:47:55;101461.41;;;20.67;100.00
57102;BME280;42982;54.558;18.508;2022-08-25T02:48:57;101454.81;;;20.68;100.00
57102;BME280;42982;54.558;18.508;2022-08-25T02:49:59;101454.00;;;20.67;100.00
57102;BME280;42982;54.558;18.508;2022-08-25T02:51:05;101456.28;;;20.65;100.00
57102;BME280;42982;54.558;18.508;2022-08-25T02:52:09;101455.00;;;20.63;100.00
57102;BME280;42982;54.558;18.508;2022-08-25T02:53:14;101458.81;;;20.62;100.00
57102;BME280;42982;54.558;18.508;2022-08-25T02:54:16;101450.16;;;20.59;100.00
57102;BME280;42982;54.558;18.508;2022-08-25T02:55:24;101451.78;;;20.60;100.00
57102;BME280;42982;54.558;18.508;2022-08-25T02:56:26;101443.56;;;20.60;100.00
57102;BME280;42982;54.558;18.508;2022-08-25T02:57:29;101442.44;;;20.62;100.00
57102;BME280;42982;54.558;18.508;2022-08-25T02:58:33;101441.31;;;20.63;100.00
57102;BME280;42982;54.558;18.508;2022-08-25T02:59:38;101442.44;;;20.62;100.00
57102;BME280;42982;54.558;18.508;2022-08-25T03:00:40;101444.06;;;20.63;100.00
57102;BME280;42982;54.558;18.508;2022-08-25T03:01:44;101444.06;;;20.63;100.00
57102;BME280;42982;54.558;18.508;2022-08-25T03:02:47;101447.25;;;20.65;100.00
57102;BME280;42982;54.558;18.508;2022-08-25T03:03:50;101446.94;;;20.66;100.00
57102;BME280;42982;54.558;18.508;2022-08-25T03:04:55;101445.66;;;20.64;100.00
57102;BME280;42982;54.558;18.508;2022-08-25T03:06:00;101446.47;;;20.64;100.00
57102;BME280;42982;54.558;18.508;2022-08-25T03:07:06;101451.59;;;20.66;100.00
57102;BME280;42982;54.558;18.508;2022-08-25T03:08:12;101450.47;;;20.67;100.00
57102;BME280;42982;54.558;18.508;2022-08-25T03:09:20;101452.06;;;20.68;100.00
57102;BME280;42982;54.558;18.508;2022-08-25T03:10:23;101460.25;;;20.68;100.00
57102;BME280;42982;54.558;18.508;2022-08-25T03:11:24;101444.22;;;20.66;100.00
57102;BME280;42982;54.558;18.508;2022-08-25T03:12:29;101448.53;;;20.67;100.00
57102;BME280;42982;54.558;18.508;2022-08-25T03:13:31;101448.88;;;20.66;100.00
57102;BME280;42982;54.558;18.508;2022-08-25T03:14:33;101447.25;;;20.65;100.00
57102;BME280;42982;54.558;18.508;2022-08-25T03:15:35;101445.00;;;20.67;100.00
57102;BME280;42982;54.558;18.508;2022-08-25T03:16:46;101452.06;;;20.68;100.00
57102;BME280;42982;54.558;18.508;2022-08-25T03:17:52;101444.34;;;20.70;100.00
57102;BME280;42982;54.558;18.508;2022-08-25T03:18:56;101453.03;;;20.72;100.00
57102;BME280;42982;54.558;18.508;2022-08-25T03:19:59;101448.22;;;20.69;100.00
57102;BME280;42982;54.558;18.508;2022-08-25T03:21:05;101450.31;;;20.72;100.00
57102;BME280;42982;54.558;18.508;2022-08-25T03:22:07;101452.25;;;20.71;100.00
57102;BME280;42982;54.558;18.508;2022-08-25T03:23:12;101448.38;;;20.72;100.00
57102;BME280;42982;54.558;18.508;2022-08-25T03:24:18;101452.69;;;20.73;100.00
57102;BME280;42982;54.558;18.508;2022-08-25T03:25:24;101451.59;;;20.74;100.00
57102;BME280;42982;54.558;18.508;2022-08-25T03:26:48;101455.13;;;20.75;100.00
57102;BME280;42982;54.558;18.508;2022-08-25T03:27:56;101450.91;;;20.77;100.00
57102;BME280;42982;54.558;18.508;2022-08-25T03:29:00;101449.31;;;20.76;100.00
57102;BME280;42982;54.558;18.508;2022-08-25T03:30:06;101456.22;;;20.74;100.00
57102;BME280;42982;54.558;18.508;2022-08-25T03:31:09;101454.63;;;20.73;100.00
57102;BME280;42982;54.558;18.508;2022-08-25T03:32:12;101447.56;;;20.72;100.00
57102;BME280;42982;54.558;18.508;2022-08-25T03:33:19;101447.56;;;20.72;100.00
57102;BME280;42982;54.558;18.508;2022-08-25T03:34:21;101450.78;;;20.74;100.00
57102;BME280;42982;54.558;18.508;2022-08-25T03:35:26;101446.44;;;20.73;100.00
57102;BME280;42982;54.558;18.508;2022-08-25T03:36:31;101454.63;;;20.73;100.00
57102;BME280;42982;54.558;18.508;2022-08-25T03:37:33;101456.22;;;20.74;100.00
57102;BME280;42982;54.558;18.508;2022-08-25T03:38:35;101452.41;;;20.75;100.00
57102;BME280;42982;54.558;18.508;2022-08-25T03:39:40;101469.09;;;20.73;100.00
57102;BME280;42982;54.558;18.508;2022-08-25T03:40:42;101456.56;;;20.72;100.00
57102;BME280;42982;54.558;18.508;2022-08-25T03:41:52;101452.25;;;20.71;100.00
57102;BME280;42982;54.558;18.508;2022-08-25T03:42:54;101458.50;;;20.72;100.00
57102;BME280;42982;54.558;18.508;2022-08-25T03:43:58;101456.22;;;20.74;100.00
57102;BME280;42982;54.558;18.508;2022-08-25T03:45:04;101450.78;;;20.74;100.00
57102;BME280;42982;54.558;18.508;2022-08-25T03:46:06;101450.47;;;20.75;100.00
57102;BME280;42982;54.558;18.508;2022-08-25T03:47:13;101455.59;;;20.77;100.00
57102;BME280;42982;54.558;18.508;2022-08-25T03:48:17;101452.84;;;20.77;100.00
57102;BME280;42982;54.558;18.508;2022-08-25T03:49:21;101453.19;;;20.75;100.00
57102;BME280;42982;54.558;18.508;2022-08-25T03:50:25;101455.44;;;20.73;100.00
57102;BME280;42982;54.558;18.508;2022-08-25T03:51:33;101463.63;;;20.73;100.00
57102;BME280;42982;54.558;18.508;2022-08-25T03:52:39;101457.06;;;20.74;100.00
57102;BME280;42982;54.558;18.508;2022-08-25T03:53:46;101461.69;;;20.74;100.00
57102;BME280;42982;54.558;18.508;2022-08-25T03:54:48;101458.66;;;20.75;100.00
57102;BME280;42982;54.558;18.508;2022-08-25T03:55:55;101456.38;;;20.77;100.00
57102;BME280;42982;54.558;18.508;2022-08-25T03:57:00;101468.13;;;20.78;100.00
57102;BME280;42982;54.558;18.508;2022-08-25T03:58:10;101458.66;;;20.75;100.00
57102;BME280;42982;54.558;18.508;2022-08-25T03:59:19;101458.31;;;20.77;100.00
57102;BME280;42982;54.558;18.508;2022-08-25T04:00:22;101458.66;;;20.75;100.00
57102;BME280;42982;54.558;18.508;2022-08-25T04:01:24;101460.25;;;20.76;100.00
57102;BME280;42982;54.558;18.508;2022-08-25T04:02:27;101459.44;;;20.76;100.00
57102;BME280;42982;54.558;18.508;2022-08-25T04:03:32;101461.06;;;20.77;100.00
57102;BME280;42982;54.558;18.508;2022-08-25T04:04:36;101464.28;;;20.79;100.00
57102;BME280;42982;54.558;18.508;2022-08-25T04:05:41;101465.06;;;20.79;100.00
57102;BME280;42982;54.558;18.508;2022-08-25T04:06:48;101470.88;;;20.78;100.00
57102;BME280;42982;54.558;18.508;2022-08-25T04:07:52;101478.72;;;20.79;100.00
57102;BME280;42982;54.558;18.508;2022-08-25T04:08:58;101468.28;;;20.81;100.00
57102;BME280;42982;54.558;18.508;2022-08-25T04:10:04;101470.69;;;20.83;100.00
57102;BME280;42982;54.558;18.508;2022-08-25T04:11:18;101467.94;;;20.83;100.00
57102;BME280;42982;54.558;18.508;2022-08-25T04:12:19;101458.16;;;20.82;100.00
57102;BME280;42982;54.558;18.508;2022-08-25T04:13:23;101460.41;;;20.80;100.00
57102;BME280;42982;54.558;18.508;2022-08-25T04:14:26;101460.41;;;20.80;100.00
57102;BME280;42982;54.558;18.508;2022-08-25T04:15:31;101452.84;;;20.77;100.00
57102;BME280;42982;54.558;18.508;2022-08-25T04:16:38;101450.13;;;20.77;100.00
57102;BME280;42982;54.558;18.508;2022-08-25T04:17:41;101455.59;;;20.77;100.00
57102;BME280;42982;54.558;18.508;2022-08-25T04:18:49;101452.41;;;20.75;100.00
57102;BME280;42982;54.558;18.508;2022-08-25T04:19:54;101446.94;;;20.75;100.00
57102;BME280;42982;54.558;18.508;2022-08-25T04:21:04;101444.50;;;20.73;100.00
57102;BME280;42982;54.558;18.508;2022-08-25T04:22:05;101439.84;;;20.74;100.00
57102;BME280;42982;54.558;18.508;2022-08-25T04:23:13;101439.84;;;20.74;100.00
57102;BME280;42982;54.558;18.508;2022-08-25T04:24:18;101432.78;;;20.73;100.00
57102;BME280;42982;54.558;18.508;2022-08-25T04:25:22;101441.91;;;20.77;100.00
57102;BME280;42982;54.558;18.508;2022-08-25T04:26:30;101445.13;;;20.79;100.00
57102;BME280;42982;54.558;18.508;2022-08-25T04:27:35;101432.28;;;20.79;100.00
57102;BME280;42982;54.558;18.508;2022-08-25T04:28:38;101438.53;;;20.80;100.00
57102;BME280;42982;54.558;18.508;2022-08-25T04:29:42;101450.75;;;20.82;100.00
57102;BME280;42982;54.558;18.508;2022-08-25T04:30:48;101448.81;;;20.83;100.00
57102;BME280;42982;54.558;18.508;2022-08-25T04:31:53;101454.28;;;20.83;100.00
57102;BME280;42982;54.558;18.508;2022-08-25T04:32:55;101444.97;;;20.84;100.00
57102;BME280;42982;54.558;18.508;2022-08-25T04:34:03;101451.56;;;20.83;100.00
57102;BME280;42982;54.558;18.508;2022-08-25T04:35:09;101449.63;;;20.83;100.00
57102;BME280;42982;54.558;18.508;2022-08-25T04:36:11;101459.09;;;20.86;100.00
57102;BME280;42982;54.558;18.508;2022-08-25T04:37:13;101456.84;;;20.88;100.00
57102;BME280;42982;54.558;18.508;2022-08-25T04:38:15;101452.19;;;20.89;100.00
57102;BME280;42982;54.558;18.508;2022-08-25T04:39:18;101454.91;;;20.89;100.00
57102;BME280;42982;54.558;18.508;2022-08-25T04:40:21;101459.09;;;20.86;100.00
57102;BME280;42982;54.558;18.508;2022-08-25T04:41:29;101452.03;;;20.85;100.00
57102;BME280;42982;54.558;18.508;2022-08-25T04:42:32;101455.91;;;20.84;100.00
57102;BME280;42982;54.558;18.508;2022-08-25T04:43:40;101455.25;;;20.87;100.00
57102;BME280;42982;54.558;18.508;2022-08-25T04:44:46;101452.53;;;20.87;100.00
57102;BME280;42982;54.558;18.508;2022-08-25T04:45:49;101456.84;;;20.88;100.00
57102;BME280;42982;54.558;18.508;2022-08-25T04:46:50;101452.03;;;20.85;100.00
57102;BME280;42982;54.558;18.508;2022-08-25T04:48:01;101466.19;;;20.87;100.00
57102;BME280;42982;54.558;18.508;2022-08-25T04:49:03;101459.59;;;20.88;100.00
57102;BME280;42982;54.558;18.508;2022-08-25T04:50:10;101454.13;;;20.88;100.00
57102;BME280;42982;54.558;18.508;2022-08-25T04:51:14;101451.03;;;20.90;100.00
57102;BME280;42982;54.558;18.508;2022-08-25T04:52:19;101457.78;;;20.92;100.00
57102;BME280;42982;54.558;18.508;2022-08-25T04:53:21;101461.66;;;20.91;100.00
57102;BME280;42982;54.558;18.508;2022-08-25T04:54:28;101458.94;;;20.91;100.00
57102;BME280;42982;54.558;18.508;2022-08-25T04:55:40;101460.06;;;20.90;100.00
57102;BME280;42982;54.558;18.508;2022-08-25T04:56:46;101453.78;;;20.90;100.00
57102;BME280;42982;54.558;18.508;2022-08-25T04:57:52;101462.81;;;20.90;100.00
57102;BME280;42982;54.558;18.508;2022-08-25T04:59:01;101457.00;;;20.92;100.00
57102;BME280;42982;54.558;18.508;2022-08-25T05:00:06;101463.13;;;20.89;100.00
57102;BME280;42982;54.558;18.508;2022-08-25T05:01:14;101458.66;;;20.84;100.00
57102;BME280;42982;54.558;18.508;2022-08-25T05:02:17;101458.00;;;20.87;100.00
57102;BME280;42982;54.558;18.508;2022-08-25T05:03:22;101463.91;;;20.89;100.00
57102;BME280;42982;54.558;18.508;2022-08-25T05:04:31;101459.91;;;20.87;100.00
57102;BME280;42982;54.558;18.508;2022-08-25T05:05:35;101461.19;;;20.89;100.00
57102;BME280;42982;54.558;18.508;2022-08-25T05:06:38;101463.25;;;20.92;100.00
57102;BME280;42982;54.558;18.508;2022-08-25T05:07:41;101457.66;;;20.89;100.00
57102;BME280;42982;54.558;18.508;2022-08-25T05:08:52;101460.06;;;20.90;100.00
57102;BME280;42982;54.558;18.508;2022-08-25T05:09:54;101461.66;;;20.91;100.00
57102;BME280;42982;54.558;18.508;2022-08-25T05:10:58;101455.84;;;20.93;100.00
57102;BME280;42982;54.558;18.508;2022-08-25T05:12:01;101453.47;;;20.91;100.00
57102;BME280;42982;54.558;18.508;2022-08-25T05:13:08;101453.94;;;20.93;100.00
57102;BME280;42982;54.558;18.508;2022-08-25T05:14:15;101458.72;;;20.96;100.00
57102;BME280;42982;54.558;18.508;2022-08-25T05:15:24;101451.81;;;20.99;100.00
57102;BME280;42982;54.558;18.508;2022-08-25T05:16:44;101453.09;;;21.01;100.00
57102;BME280;42982;54.558;18.508;2022-08-25T05:17:47;101450.72;;;21.00;100.00
57102;BME280;42982;54.558;18.508;2022-08-25T05:18:56;101454.25;;;21.00;100.00
57102;BME280;42982;54.558;18.508;2022-08-25T05:20:01;101454.25;;;21.00;100.00
57102;BME280;42982;54.558;18.508;2022-08-25T05:21:15;101455.03;;;21.01;100.00
57102;BME280;42982;54.558;18.508;2022-08-25T05:22:20;101457.28;;;20.99;100.00
57102;BME280;42982;54.558;18.508;2022-08-25T05:23:25;101454.25;;;21.00;100.00
57102;BME280;42982;54.558;18.508;2022-08-25T05:24:29;101455.19;;;21.04;100.00
57102;BME280;42982;54.558;18.508;2022-08-25T05:25:35;101453.09;;;21.01;100.00
57102;BME280;42982;54.558;18.508;2022-08-25T05:26:37;101448.78;;;21.00;100.00
57102;BME280;42982;54.558;18.508;2022-08-25T05:27:41;101451.03;;;20.98;100.00
57102;BME280;42982;54.558;18.508;2022-08-25T05:28:44;101449.44;;;20.97;100.00
57102;BME280;42982;54.558;18.508;2022-08-25T05:29:49;101451.81;;;20.99;100.00
57102;BME280;42982;54.558;18.508;2022-08-25T05:31:00;101445.25;;;21.00;100.00
57102;BME280;42982;54.558;18.508;2022-08-25T05:32:05;101442.34;;;20.96;100.00
57102;BME280;42982;54.558;18.508;2022-08-25T05:33:11;101450.53;;;20.96;100.00
57102;BME280;42982;54.558;18.508;2022-08-25T05:34:19;101449.88;;;20.99;100.00
57102;BME280;42982;54.558;18.508;2022-08-25T05:35:21;101454.53;;;21.08;100.00
57102;BME280;42982;54.558;18.508;2022-08-25T05:36:26;101449.06;;;21.08;100.00
57102;BME280;42982;54.558;18.508;2022-08-25T05:37:34;101454.53;;;21.08;100.00